createdAt,value
2019-01-20T00:00:33.847Z,23.90
2019-01-20T00:01:33.844Z,18.20
2019-01-20T00:02:33.832Z,21.50
2019-01-20T00:03:33.815Z,16.50
2019-01-20T00:04:33.814Z,17.50
2019-01-20T00:05:33.796Z,20.30
2019-01-20T00:06:33.777Z,18.00
2019-01-20T00:07:33.767Z,21.40
2019-01-20T00:08:33.743Z,20.30
2019-01-20T00:09:33.742Z,20.30
2019-01-20T00:10:33.722Z,20.40
2019-01-20T00:11:33.714Z,21.10
2019-01-20T00:12:33.697Z,18.20
2019-01-20T00:13:34.308Z,26.70
2019-01-20T00:14:33.666Z,21.70
2019-01-20T00:15:33.661Z,21.70
2019-01-20T00:16:33.648Z,19.20
2019-01-20T00:17:33.639Z,21.40
2019-01-20T00:18:33.627Z,20.60
2019-01-20T00:19:33.603Z,19.40
2019-01-20T00:20:33.613Z,18.50
2019-01-20T00:21:33.597Z,20.40
2019-01-20T00:22:33.587Z,22.00
2019-01-20T00:23:33.554Z,22.30
2019-01-20T00:24:33.547Z,18.50
2019-01-20T00:25:33.543Z,20.30
2019-01-20T00:26:33.531Z,23.50
2019-01-20T00:27:33.509Z,21.50
2019-01-20T00:28:33.497Z,18.80
2019-01-20T00:29:33.487Z,17.80
2019-01-20T00:30:33.471Z,20.40
2019-01-20T00:31:33.460Z,23.60
2019-01-20T00:32:33.445Z,22.70
2019-01-20T00:33:33.429Z,21.60
2019-01-20T00:34:33.427Z,23.40
2019-01-20T00:35:33.410Z,24.30
2019-01-20T00:36:33.395Z,21.10
2019-01-20T00:37:33.383Z,20.30
2019-01-20T00:38:33.364Z,23.60
2019-01-20T00:39:33.356Z,20.80
2019-01-20T00:40:33.333Z,21.30
2019-01-20T00:41:33.330Z,22.60
2019-01-20T00:42:33.313Z,20.60
2019-01-20T00:43:33.296Z,20.70
2019-01-20T00:44:33.287Z,21.60
2019-01-20T00:45:33.283Z,18.20
2019-01-20T00:46:33.269Z,18.70
2019-01-20T00:47:33.250Z,21.00
2019-01-20T00:48:33.240Z,20.30
2019-01-20T00:49:33.241Z,22.70
2019-01-20T00:50:33.212Z,21.50
2019-01-20T00:51:33.200Z,21.60
2019-01-20T00:52:33.190Z,22.20
2019-01-20T00:53:33.184Z,18.80
2019-01-20T00:54:33.177Z,18.80
2019-01-20T00:55:33.178Z,19.60
2019-01-20T00:56:33.145Z,20.20
2019-01-20T00:57:33.128Z,20.60
2019-01-20T00:58:33.110Z,24.00
2019-01-20T00:59:33.095Z,24.90
2019-01-20T01:00:33.082Z,21.30
2019-01-20T01:01:33.069Z,21.10
2019-01-20T01:02:33.062Z,22.90
2019-01-20T01:03:33.044Z,18.80
2019-01-20T01:04:33.028Z,21.40
2019-01-20T01:05:33.014Z,20.70
2019-01-20T01:06:33.003Z,20.10
2019-01-20T01:07:32.991Z,21.90
2019-01-20T01:08:32.974Z,19.70
2019-01-20T01:09:32.977Z,21.80
2019-01-20T01:10:32.945Z,23.00
2019-01-20T01:11:32.938Z,20.30
2019-01-20T01:12:32.923Z,20.30
2019-01-20T01:13:32.916Z,22.00
2019-01-20T01:14:32.904Z,22.90
2019-01-20T01:15:32.891Z,21.90
2019-01-20T01:16:32.873Z,20.30
2019-01-20T01:17:32.864Z,17.50
2019-01-20T01:18:32.849Z,22.10
2019-01-20T01:19:32.843Z,22.10
2019-01-20T01:20:32.818Z,20.30
2019-01-20T01:21:32.817Z,23.90
2019-01-20T01:22:32.796Z,21.90
2019-01-20T01:23:32.785Z,21.30
2019-01-20T01:24:32.775Z,21.40
2019-01-20T01:25:33.313Z,23.90
2019-01-20T01:26:32.747Z,22.30
2019-01-20T01:27:32.727Z,21.00
2019-01-20T01:28:32.727Z,23.00
2019-01-20T01:29:32.707Z,22.40
2019-01-20T01:30:32.689Z,19.20
2019-01-20T01:31:32.680Z,24.70
2019-01-20T01:32:32.668Z,22.50
2019-01-20T01:33:32.654Z,22.40
2019-01-20T01:34:32.645Z,22.10
2019-01-20T01:35:32.630Z,23.70
2019-01-20T01:36:32.615Z,21.90
2019-01-20T01:37:32.601Z,20.70
2019-01-20T01:38:32.589Z,22.80
2019-01-20T01:39:32.580Z,24.30
2019-01-20T01:40:32.567Z,26.70
2019-01-20T01:41:38.883Z,22.10
2019-01-20T01:42:32.532Z,20.60
2019-01-20T01:43:32.528Z,22.20
2019-01-20T01:44:32.514Z,21.50
2019-01-20T01:45:32.494Z,20.00
2019-01-20T01:46:32.501Z,23.90
2019-01-20T01:47:32.476Z,22.10
2019-01-20T01:48:32.466Z,23.30
2019-01-20T01:49:32.449Z,22.60
2019-01-20T01:50:32.438Z,21.70
2019-01-20T01:51:32.420Z,23.20
2019-01-20T01:52:32.409Z,21.30
2019-01-20T01:53:32.401Z,20.10
2019-01-20T01:54:32.381Z,23.80
2019-01-20T01:55:32.365Z,21.90
2019-01-20T01:56:32.366Z,23.40
2019-01-20T01:57:32.346Z,26.00
2019-01-20T01:58:32.334Z,22.90
2019-01-20T01:59:32.315Z,24.10
2019-01-20T02:00:32.302Z,23.70
2019-01-20T02:01:32.290Z,26.80
2019-01-20T02:02:32.279Z,23.00
2019-01-20T02:03:32.274Z,22.70
2019-01-20T02:04:32.250Z,21.10
2019-01-20T02:05:32.235Z,24.00
2019-01-20T02:06:32.229Z,22.10
2019-01-20T02:07:32.209Z,22.90
2019-01-20T02:08:32.191Z,21.20
2019-01-20T02:09:32.186Z,23.70
2019-01-20T02:10:32.225Z,21.40
2019-01-20T02:11:32.161Z,22.60
2019-01-20T02:12:32.152Z,23.30
2019-01-20T02:13:32.138Z,24.00
2019-01-20T02:14:32.109Z,20.90
2019-01-20T02:15:32.104Z,21.80
2019-01-20T02:16:32.117Z,23.90
2019-01-20T02:17:32.076Z,22.40
2019-01-20T02:18:32.065Z,24.20
2019-01-20T02:19:32.051Z,23.00
2019-01-20T02:20:32.041Z,21.00
2019-01-20T02:21:32.031Z,23.80
2019-01-20T02:22:32.013Z,22.80
2019-01-20T02:23:31.992Z,25.00
2019-01-20T02:24:31.984Z,23.70
2019-01-20T02:25:31.984Z,24.70
2019-01-20T02:26:31.960Z,23.40
2019-01-20T02:27:31.961Z,26.80
2019-01-20T02:28:31.936Z,23.20
2019-01-20T02:29:31.911Z,21.70
2019-01-20T02:30:31.921Z,23.20
2019-01-20T02:31:31.896Z,21.60
2019-01-20T02:32:31.888Z,21.00
2019-01-20T02:33:31.872Z,21.00
2019-01-20T02:34:31.859Z,23.20
2019-01-20T02:35:31.848Z,19.50
2019-01-20T02:36:31.829Z,20.40
2019-01-20T02:37:31.832Z,18.30
2019-01-20T02:38:31.811Z,19.40
2019-01-20T02:39:31.795Z,20.70
2019-01-20T02:40:31.774Z,25.00
2019-01-20T02:41:31.763Z,21.20
2019-01-20T02:42:32.029Z,22.50
2019-01-20T02:43:31.740Z,22.80
2019-01-20T02:44:31.722Z,22.10
2019-01-20T02:45:31.711Z,24.20
2019-01-20T02:46:31.689Z,19.30
2019-01-20T02:47:31.683Z,23.90
2019-01-20T02:48:31.680Z,28.30
2019-01-20T02:49:31.657Z,27.60
2019-01-20T02:50:31.648Z,25.30
2019-01-20T02:51:31.648Z,26.90
2019-01-20T02:52:31.621Z,22.30
2019-01-20T02:53:31.610Z,23.90
2019-01-20T02:54:31.597Z,24.90
2019-01-20T02:55:31.592Z,20.50
2019-01-20T02:56:31.572Z,21.70
2019-01-20T02:57:31.558Z,19.90
2019-01-20T02:58:31.530Z,20.90
2019-01-20T02:59:31.541Z,23.00
2019-01-20T03:00:31.509Z,24.00
2019-01-20T03:01:31.514Z,20.70
2019-01-20T03:02:31.494Z,26.40
2019-01-20T03:03:31.472Z,25.70
2019-01-20T03:04:31.481Z,21.90
2019-01-20T03:05:31.470Z,24.40
2019-01-20T03:06:31.435Z,25.90
2019-01-20T03:07:31.415Z,21.30
2019-01-20T03:08:31.400Z,23.00
2019-01-20T03:09:31.384Z,23.50
2019-01-20T03:10:31.381Z,23.70
2019-01-20T03:11:31.370Z,21.20
2019-01-20T03:12:31.361Z,23.00
2019-01-20T03:13:31.331Z,18.50
2019-01-20T03:14:31.337Z,20.80
2019-01-20T03:15:31.321Z,27.10
2019-01-20T03:16:31.304Z,25.70
2019-01-20T03:17:31.288Z,26.30
2019-01-20T03:18:31.273Z,20.90
2019-01-20T03:19:31.262Z,21.50
2019-01-20T03:20:31.245Z,25.90
2019-01-20T03:21:31.237Z,24.90
2019-01-20T03:22:31.227Z,25.70
2019-01-20T03:23:31.212Z,27.20
2019-01-20T03:24:31.198Z,24.40
2019-01-20T03:25:31.187Z,28.80
2019-01-20T03:26:31.162Z,29.40
2019-01-20T03:27:31.150Z,24.00
2019-01-20T03:28:31.145Z,52.30
2019-01-20T03:29:31.133Z,83.80
2019-01-20T03:30:31.123Z,78.40
2019-01-20T03:31:31.103Z,86.80
2019-01-20T03:32:31.096Z,63.40
2019-01-20T03:33:31.075Z,44.30
2019-01-20T03:34:31.075Z,48.20
2019-01-20T03:35:31.048Z,33.70
2019-01-20T03:36:31.042Z,36.40
2019-01-20T03:37:31.023Z,28.50
2019-01-20T03:38:31.003Z,27.50
2019-01-20T03:39:30.997Z,24.00
2019-01-20T03:40:30.984Z,26.00
2019-01-20T03:41:30.976Z,22.50
2019-01-20T03:42:30.957Z,24.20
2019-01-20T03:43:30.975Z,20.80
2019-01-20T03:44:30.958Z,21.80
2019-01-20T03:45:30.925Z,23.50
2019-01-20T03:46:30.906Z,23.90
2019-01-20T03:47:30.889Z,26.50
2019-01-20T03:48:30.883Z,23.70
2019-01-20T03:49:30.866Z,21.10
2019-01-20T03:50:30.858Z,22.30
2019-01-20T03:51:30.839Z,23.80
2019-01-20T03:52:30.823Z,26.80
2019-01-20T03:53:30.810Z,24.70
2019-01-20T03:54:30.805Z,25.40
2019-01-20T03:55:30.788Z,23.00
2019-01-20T03:56:30.772Z,21.60
2019-01-20T03:57:30.760Z,26.20
2019-01-20T03:58:30.744Z,26.30
2019-01-20T03:59:30.736Z,34.10
2019-01-20T04:00:30.720Z,33.90
2019-01-20T04:01:30.706Z,28.40
2019-01-20T04:02:30.691Z,30.30
2019-01-20T04:03:30.681Z,41.70
2019-01-20T04:04:30.667Z,36.60
2019-01-20T04:05:30.651Z,34.00
2019-01-20T04:06:30.646Z,30.10
2019-01-20T04:07:30.628Z,30.60
2019-01-20T04:08:30.613Z,30.40
2019-01-20T04:09:30.601Z,35.90
2019-01-20T04:10:30.586Z,31.80
2019-01-20T04:11:30.572Z,26.90
2019-01-20T04:12:30.558Z,28.40
2019-01-20T04:13:30.546Z,30.50
2019-01-20T04:14:30.526Z,34.30
2019-01-20T04:15:30.521Z,27.20
2019-01-20T04:16:30.514Z,24.00
2019-01-20T04:17:30.491Z,24.30
2019-01-20T04:18:30.480Z,29.10
2019-01-20T04:19:30.465Z,26.30
2019-01-20T04:20:30.455Z,27.00
2019-01-20T04:21:30.438Z,28.00
2019-01-20T04:22:30.422Z,31.40
2019-01-20T04:23:30.409Z,28.40
2019-01-20T04:24:30.400Z,30.80
2019-01-20T04:25:30.379Z,32.00
2019-01-20T04:26:30.379Z,28.00
2019-01-20T04:27:30.355Z,27.40
2019-01-20T04:28:30.344Z,28.00
2019-01-20T04:29:30.331Z,23.50
2019-01-20T04:30:30.310Z,36.10
2019-01-20T04:31:30.305Z,27.30
2019-01-20T04:32:30.295Z,30.70
2019-01-20T04:33:30.282Z,29.10
2019-01-20T04:34:30.264Z,31.30
2019-01-20T04:35:30.253Z,29.10
2019-01-20T04:36:30.241Z,30.90
2019-01-20T04:37:30.235Z,28.30
2019-01-20T04:38:30.216Z,27.70
2019-01-20T04:39:30.198Z,26.70
2019-01-20T04:40:30.198Z,29.20
2019-01-20T04:41:30.175Z,26.20
2019-01-20T04:42:30.156Z,29.60
2019-01-20T04:43:30.145Z,27.80
2019-01-20T04:44:30.131Z,27.80
2019-01-20T04:45:30.112Z,28.80
2019-01-20T04:46:30.107Z,29.30
2019-01-20T04:47:30.090Z,32.20
2019-01-20T04:48:30.079Z,27.10
2019-01-20T04:49:30.063Z,30.10
2019-01-20T04:50:30.053Z,26.30
2019-01-20T04:51:30.044Z,28.40
2019-01-20T04:52:30.029Z,25.70
2019-01-20T04:53:30.046Z,27.10
2019-01-20T04:54:29.996Z,27.10
2019-01-20T04:55:29.988Z,28.30
2019-01-20T04:56:29.975Z,29.40
2019-01-20T04:57:29.961Z,35.20
2019-01-20T04:58:29.945Z,29.40
2019-01-20T04:59:29.936Z,29.70
2019-01-20T05:00:29.920Z,29.20
2019-01-20T05:01:29.907Z,31.80
2019-01-20T05:02:29.890Z,29.00
2019-01-20T05:03:29.876Z,30.30
2019-01-20T05:04:29.874Z,28.90
2019-01-20T05:05:29.856Z,29.30
2019-01-20T05:06:29.838Z,27.70
2019-01-20T05:07:29.825Z,28.60
2019-01-20T05:08:29.819Z,28.20
2019-01-20T05:09:29.790Z,23.20
2019-01-20T05:10:29.786Z,24.90
2019-01-20T05:11:29.772Z,25.20
2019-01-20T05:12:37.310Z,25.70
2019-01-20T05:13:29.756Z,24.70
2019-01-20T05:14:29.729Z,32.40
2019-01-20T05:15:29.712Z,28.80
2019-01-20T05:16:29.710Z,28.40
2019-01-20T05:17:29.689Z,25.40
2019-01-20T05:18:29.680Z,26.10
2019-01-20T05:19:29.656Z,29.10
2019-01-20T05:20:29.645Z,27.40
2019-01-20T05:21:29.636Z,27.30
2019-01-20T05:22:29.629Z,30.40
2019-01-20T05:23:29.605Z,28.80
2019-01-20T05:24:29.600Z,24.30
2019-01-20T05:25:29.587Z,29.00
2019-01-20T05:26:29.569Z,26.20
2019-01-20T05:27:29.557Z,28.00
2019-01-20T05:28:29.544Z,27.40
2019-01-20T05:29:29.531Z,30.00
2019-01-20T05:30:29.514Z,25.90
2019-01-20T05:31:29.505Z,28.00
2019-01-20T05:32:29.494Z,28.40
2019-01-20T05:33:29.481Z,28.00
2019-01-20T05:34:29.462Z,25.50
2019-01-20T05:35:29.449Z,29.40
2019-01-20T05:36:29.445Z,27.90
2019-01-20T05:37:29.425Z,26.00
2019-01-20T05:38:29.406Z,26.10
2019-01-20T05:39:29.389Z,24.80
2019-01-20T05:40:29.382Z,25.40
2019-01-20T05:41:29.367Z,28.40
2019-01-20T05:42:29.358Z,22.20
2019-01-20T05:43:29.348Z,25.10
2019-01-20T05:44:29.341Z,24.70
2019-01-20T05:45:29.321Z,28.70
2019-01-20T05:46:29.300Z,26.30
2019-01-20T05:47:29.286Z,28.00
2019-01-20T05:48:29.289Z,27.10
2019-01-20T05:49:29.263Z,26.40
2019-01-20T05:50:29.252Z,28.20
2019-01-20T05:51:29.233Z,25.70
2019-01-20T05:52:29.221Z,27.90
2019-01-20T05:53:29.206Z,25.40
2019-01-20T05:54:29.195Z,32.70
2019-01-20T05:55:29.178Z,27.50
2019-01-20T05:56:29.162Z,27.30
2019-01-20T05:57:29.162Z,28.50
2019-01-20T05:58:29.134Z,29.00
2019-01-20T05:59:29.136Z,29.30
2019-01-20T06:00:29.129Z,26.10
2019-01-20T06:01:29.103Z,33.70
2019-01-20T06:02:29.084Z,30.00
2019-01-20T06:03:29.076Z,31.50
2019-01-20T06:04:29.070Z,28.80
2019-01-20T06:05:29.050Z,33.20
2019-01-20T06:06:29.030Z,28.20
2019-01-20T06:07:29.018Z,27.70
2019-01-20T06:08:29.004Z,27.60
2019-01-20T06:09:29.007Z,25.80
2019-01-20T06:10:28.979Z,29.70
2019-01-20T06:11:28.970Z,31.50
2019-01-20T06:12:28.950Z,28.80
2019-01-20T06:13:28.946Z,30.00
2019-01-20T06:14:28.923Z,26.30
2019-01-20T06:15:28.910Z,23.50
2019-01-20T06:16:28.899Z,28.40
2019-01-20T06:17:28.889Z,27.70
2019-01-20T06:18:28.862Z,26.50
2019-01-20T06:19:28.858Z,28.90
2019-01-20T06:20:28.846Z,31.50
2019-01-20T06:21:28.831Z,33.80
2019-01-20T06:22:28.816Z,29.60
2019-01-20T06:23:28.810Z,26.40
2019-01-20T06:24:28.785Z,31.20
2019-01-20T06:25:28.778Z,25.80
2019-01-20T06:26:28.765Z,30.50
2019-01-20T06:27:28.763Z,28.30
2019-01-20T06:28:28.732Z,31.70
2019-01-20T06:29:28.725Z,32.20
2019-01-20T06:30:28.711Z,30.80
2019-01-20T06:31:28.694Z,30.90
2019-01-20T06:32:28.678Z,29.70
2019-01-20T06:33:28.666Z,27.30
2019-01-20T06:34:28.659Z,31.80
2019-01-20T06:35:28.662Z,30.20
2019-01-20T06:36:28.629Z,28.20
2019-01-20T06:37:28.612Z,32.10
2019-01-20T06:38:28.599Z,31.80
2019-01-20T06:39:28.584Z,28.10
2019-01-20T06:40:28.579Z,29.90
2019-01-20T06:41:28.564Z,29.40
2019-01-20T06:42:28.544Z,31.70
2019-01-20T06:43:28.535Z,30.00
2019-01-20T06:44:28.520Z,27.20
2019-01-20T06:45:28.504Z,31.80
2019-01-20T06:46:28.490Z,28.40
2019-01-20T06:47:28.478Z,26.10
2019-01-20T06:48:28.469Z,27.40
2019-01-20T06:49:28.454Z,28.90
2019-01-20T06:50:28.456Z,29.70
2019-01-20T06:51:28.417Z,27.40
2019-01-20T06:52:28.411Z,29.70
2019-01-20T06:53:28.395Z,27.70
2019-01-20T06:54:28.385Z,30.00
2019-01-20T06:55:28.371Z,32.40
2019-01-20T06:56:28.352Z,30.70
2019-01-20T06:57:28.348Z,32.30
2019-01-20T06:58:28.333Z,27.10
2019-01-20T06:59:28.321Z,26.50
2019-01-20T07:00:28.300Z,29.80
2019-01-20T07:01:28.288Z,28.10
2019-01-20T07:02:28.271Z,31.20
2019-01-20T07:03:28.258Z,27.80
2019-01-20T07:04:28.240Z,28.00
2019-01-20T07:05:28.229Z,28.20
2019-01-20T07:06:28.221Z,26.80
2019-01-20T07:07:28.208Z,24.10
2019-01-20T07:08:28.195Z,29.10
2019-01-20T07:09:28.185Z,29.60
2019-01-20T07:10:28.166Z,28.00
2019-01-20T07:11:28.147Z,32.00
2019-01-20T07:12:28.161Z,29.50
2019-01-20T07:13:28.127Z,29.00
2019-01-20T07:14:28.109Z,37.50
2019-01-20T07:15:28.097Z,31.00
2019-01-20T07:16:28.084Z,28.60
2019-01-20T07:17:28.077Z,28.00
2019-01-20T07:18:28.059Z,25.20
2019-01-20T07:19:28.049Z,27.80
2019-01-20T07:20:28.031Z,33.20
2019-01-20T07:21:28.016Z,27.20
2019-01-20T07:22:28.008Z,26.50
2019-01-20T07:23:28.014Z,26.30
2019-01-20T07:24:27.987Z,27.20
2019-01-20T07:25:27.962Z,25.60
2019-01-20T07:26:27.950Z,28.70
2019-01-20T07:27:27.941Z,30.80
2019-01-20T07:28:27.925Z,25.50
2019-01-20T07:29:27.919Z,25.10
2019-01-20T07:30:27.897Z,29.20
2019-01-20T07:31:27.886Z,30.20
2019-01-20T07:32:27.867Z,30.80
2019-01-20T07:33:27.889Z,27.80
2019-01-20T07:34:27.845Z,23.90
2019-01-20T07:35:27.825Z,28.50
2019-01-20T07:36:27.805Z,29.30
2019-01-20T07:37:27.803Z,25.20
2019-01-20T07:38:27.786Z,26.40
2019-01-20T07:39:27.774Z,25.60
2019-01-20T07:40:27.771Z,26.80
2019-01-20T07:41:27.747Z,24.40
2019-01-20T07:42:27.724Z,24.40
2019-01-20T07:43:27.712Z,27.10
2019-01-20T07:44:27.708Z,25.70
2019-01-20T07:45:27.685Z,26.60
2019-01-20T07:46:27.677Z,25.70
2019-01-20T07:47:27.660Z,24.80
2019-01-20T07:48:27.645Z,25.50
2019-01-20T07:49:27.628Z,26.20
2019-01-20T07:50:27.620Z,23.30
2019-01-20T07:51:27.606Z,26.70
2019-01-20T07:52:27.600Z,26.90
2019-01-20T07:53:27.589Z,31.30
2019-01-20T07:54:27.567Z,31.20
2019-01-20T07:55:27.552Z,27.20
2019-01-20T07:56:27.536Z,28.20
2019-01-20T07:57:27.528Z,24.90
2019-01-20T07:58:27.507Z,25.70
2019-01-20T07:59:27.508Z,29.60
2019-01-20T08:00:27.491Z,28.70
2019-01-20T08:01:27.473Z,27.10
2019-01-20T08:02:27.457Z,29.00
2019-01-20T08:03:27.470Z,26.70
2019-01-20T08:04:27.435Z,25.40
2019-01-20T08:05:27.449Z,27.10
2019-01-20T08:06:27.402Z,30.60
2019-01-20T08:07:27.392Z,32.60
2019-01-20T08:08:27.372Z,24.40
2019-01-20T08:09:27.357Z,23.80
2019-01-20T08:10:27.353Z,30.80
2019-01-20T08:11:27.334Z,29.20
2019-01-20T08:12:27.319Z,31.70
2019-01-20T08:13:27.309Z,23.90
2019-01-20T08:14:27.299Z,23.00
2019-01-20T08:15:27.285Z,24.10
2019-01-20T08:16:27.269Z,28.40
2019-01-20T08:17:27.261Z,25.10
2019-01-20T08:18:27.244Z,25.70
2019-01-20T08:19:27.236Z,27.80
2019-01-20T08:20:27.220Z,30.00
2019-01-20T08:21:27.206Z,27.40
2019-01-20T08:22:27.198Z,23.40
2019-01-20T08:23:27.184Z,25.10
2019-01-20T08:24:27.197Z,24.00
2019-01-20T08:25:27.154Z,22.80
2019-01-20T08:26:27.139Z,23.90
2019-01-20T08:27:27.115Z,25.30
2019-01-20T08:28:27.114Z,25.00
2019-01-20T08:29:27.099Z,22.00
2019-01-20T08:30:27.087Z,20.00
2019-01-20T08:31:28.747Z,23.40
2019-01-20T08:32:27.061Z,22.20
2019-01-20T08:33:27.046Z,25.00
2019-01-20T08:34:27.033Z,24.30
2019-01-20T08:35:27.023Z,22.00
2019-01-20T08:36:27.010Z,24.40
2019-01-20T08:37:28.907Z,22.00
2019-01-20T08:38:26.986Z,29.20
2019-01-20T08:39:26.958Z,23.90
2019-01-20T08:40:26.958Z,25.20
2019-01-20T08:41:26.946Z,22.40
2019-01-20T08:42:26.934Z,23.10
2019-01-20T08:43:31.762Z,20.20
2019-01-20T08:44:26.905Z,19.90
2019-01-20T08:45:26.892Z,20.90
2019-01-20T08:46:26.877Z,18.80
2019-01-20T08:47:26.869Z,17.00
2019-01-20T08:48:26.854Z,21.70
2019-01-20T08:49:26.842Z,23.50
2019-01-20T08:50:26.828Z,28.90
2019-01-20T08:51:26.813Z,21.90
2019-01-20T08:52:26.799Z,20.30
2019-01-20T08:53:28.345Z,19.10
2019-01-20T08:54:26.778Z,18.80
2019-01-20T08:55:26.762Z,19.70
2019-01-20T08:56:26.743Z,24.50
2019-01-20T08:57:26.733Z,21.50
2019-01-20T08:58:26.722Z,25.00
2019-01-20T08:59:26.714Z,27.10
2019-01-20T09:00:26.690Z,23.20
2019-01-20T09:01:26.682Z,19.10
2019-01-20T09:02:26.675Z,20.00
2019-01-20T09:03:26.657Z,20.10
2019-01-20T09:04:26.648Z,17.70
2019-01-20T09:05:26.634Z,17.80
2019-01-20T09:06:26.621Z,17.70
2019-01-20T09:07:26.612Z,18.90
2019-01-20T09:08:26.599Z,14.20
2019-01-20T09:09:26.584Z,18.70
2019-01-20T09:10:26.571Z,19.10
2019-01-20T09:11:26.566Z,21.60
2019-01-20T09:12:26.544Z,19.40
2019-01-20T09:13:26.535Z,18.80
2019-01-20T09:14:26.525Z,21.80
2019-01-20T09:15:26.788Z,18.10
2019-01-20T09:16:26.499Z,18.80
2019-01-20T09:17:26.496Z,19.80
2019-01-20T09:18:26.471Z,18.60
2019-01-20T09:19:26.459Z,20.20
2019-01-20T09:20:39.703Z,18.50
2019-01-20T09:21:26.446Z,19.60
2019-01-20T09:22:26.424Z,17.30
2019-01-20T09:23:26.659Z,16.90
2019-01-20T09:24:28.790Z,17.80
2019-01-20T09:25:26.398Z,20.10
2019-01-20T09:26:26.937Z,21.10
2019-01-20T09:27:26.368Z,18.00
2019-01-20T09:28:26.358Z,15.60
2019-01-20T09:29:26.341Z,18.80
2019-01-20T09:30:26.320Z,18.60
2019-01-20T09:31:26.311Z,17.90
2019-01-20T09:32:26.303Z,18.20
2019-01-20T09:33:26.293Z,18.20
2019-01-20T09:34:26.284Z,18.90
2019-01-20T09:35:27.382Z,18.40
2019-01-20T09:36:26.260Z,20.30
2019-01-20T09:37:26.244Z,18.40
2019-01-20T09:38:26.235Z,18.20
2019-01-20T09:39:26.219Z,19.00
2019-01-20T09:40:26.216Z,21.10
2019-01-20T09:41:26.200Z,22.10
2019-01-20T09:42:26.190Z,21.70
2019-01-20T09:43:26.161Z,17.20
2019-01-20T09:44:26.159Z,19.40
2019-01-20T09:45:26.153Z,18.00
2019-01-20T09:46:26.544Z,17.90
2019-01-20T09:47:26.126Z,16.80
2019-01-20T09:48:26.123Z,20.70
2019-01-20T09:49:26.103Z,18.10
2019-01-20T09:50:26.147Z,18.80
2019-01-20T09:51:26.084Z,23.30
2019-01-20T09:52:28.313Z,18.40
2019-01-20T09:53:26.056Z,15.70
2019-01-20T09:54:26.044Z,18.50
2019-01-20T09:55:26.031Z,18.60
2019-01-20T09:56:26.019Z,18.80
2019-01-20T09:57:26.009Z,18.50
2019-01-20T09:58:25.996Z,17.20
2019-01-20T09:59:25.999Z,17.90
2019-01-20T10:00:25.976Z,19.70
2019-01-20T10:01:25.968Z,15.50
2019-01-20T10:02:25.949Z,19.40
2019-01-20T10:03:25.938Z,16.80
2019-01-20T10:04:25.935Z,17.10
2019-01-20T10:05:25.919Z,17.00
2019-01-20T10:06:25.906Z,21.00
2019-01-20T10:07:25.894Z,20.20
2019-01-20T10:08:25.882Z,18.60
2019-01-20T10:09:25.863Z,17.90
2019-01-20T10:10:25.859Z,15.30
2019-01-20T10:11:25.874Z,19.90
2019-01-20T10:12:25.835Z,18.80
2019-01-20T10:13:25.825Z,18.70
2019-01-20T10:14:25.808Z,17.50
2019-01-20T10:15:25.797Z,21.10
2019-01-20T10:16:25.790Z,20.80
2019-01-20T10:17:25.774Z,18.20
2019-01-20T10:18:25.769Z,19.90
2019-01-20T10:19:25.754Z,18.80
2019-01-20T10:20:25.749Z,19.40
2019-01-20T10:21:25.730Z,18.60
2019-01-20T10:22:25.716Z,15.00
2019-01-20T10:23:25.707Z,13.90
2019-01-20T10:24:25.695Z,20.80
2019-01-20T10:25:25.694Z,20.30
2019-01-20T10:26:25.670Z,19.30
2019-01-20T10:27:25.660Z,16.90
2019-01-20T10:28:25.658Z,16.90
2019-01-20T10:29:25.640Z,17.60
2019-01-20T10:30:25.673Z,18.90
2019-01-20T10:31:25.612Z,22.20
2019-01-20T10:32:25.603Z,20.10
2019-01-20T10:33:25.604Z,17.70
2019-01-20T10:34:25.602Z,18.50
2019-01-20T10:35:25.566Z,20.00
2019-01-20T10:36:25.553Z,16.10
2019-01-20T10:37:25.545Z,18.90
2019-01-20T10:38:25.535Z,19.40
2019-01-20T10:39:25.580Z,15.90
2019-01-20T10:40:25.513Z,17.50
2019-01-20T10:41:25.504Z,20.80
2019-01-20T10:42:25.481Z,19.90
2019-01-20T10:43:25.474Z,20.60
2019-01-20T10:44:25.469Z,17.10
2019-01-20T10:45:25.457Z,18.20
2019-01-20T10:46:25.441Z,16.30
2019-01-20T10:47:25.429Z,19.60
2019-01-20T10:48:25.414Z,20.70
2019-01-20T10:49:25.405Z,22.90
2019-01-20T10:50:25.395Z,20.50
2019-01-20T10:51:25.388Z,20.30
2019-01-20T10:52:25.373Z,19.50
2019-01-20T10:53:25.360Z,19.60
2019-01-20T10:54:25.350Z,19.60
2019-01-20T10:55:25.333Z,16.60
2019-01-20T10:56:25.325Z,18.70
2019-01-20T10:57:25.316Z,21.60
2019-01-20T10:58:25.302Z,16.50
2019-01-20T10:59:25.292Z,16.60
2019-01-20T11:00:25.279Z,20.90
2019-01-20T11:01:25.267Z,18.50
2019-01-20T11:02:25.268Z,20.00
2019-01-20T11:03:25.254Z,16.90
2019-01-20T11:04:25.242Z,20.90
2019-01-20T11:05:30.201Z,22.70
2019-01-20T11:06:25.209Z,20.40
2019-01-20T11:07:25.193Z,21.00
2019-01-20T11:08:25.184Z,19.50
2019-01-20T11:09:25.170Z,18.00
2019-01-20T11:10:25.157Z,19.60
2019-01-20T11:11:25.143Z,17.10
2019-01-20T11:12:25.141Z,22.20
2019-01-20T11:13:25.125Z,19.80
2019-01-20T11:14:25.112Z,26.10
2019-01-20T11:15:25.105Z,17.40
2019-01-20T11:16:25.094Z,17.20
2019-01-20T11:17:25.076Z,20.40
2019-01-20T11:18:25.076Z,18.10
2019-01-20T11:19:25.052Z,20.80
2019-01-20T11:20:25.037Z,19.20
2019-01-20T11:21:25.029Z,17.30
2019-01-20T11:22:25.015Z,18.70
2019-01-20T11:23:25.008Z,20.70
2019-01-20T11:24:24.995Z,19.90
2019-01-20T11:25:24.981Z,19.60
2019-01-20T11:26:24.965Z,20.00
2019-01-20T11:27:24.956Z,18.50
2019-01-20T11:28:24.951Z,21.20
2019-01-20T11:29:24.947Z,21.60
2019-01-20T11:30:24.919Z,17.10
2019-01-20T11:31:24.909Z,24.90
2019-01-20T11:32:24.895Z,18.90
2019-01-20T11:33:24.887Z,19.00
2019-01-20T11:34:24.879Z,18.20
2019-01-20T11:35:24.871Z,18.50
2019-01-20T11:36:24.854Z,18.40
2019-01-20T11:37:24.844Z,18.30
2019-01-20T11:38:24.825Z,18.40
2019-01-20T11:39:24.814Z,17.70
2019-01-20T11:40:24.809Z,19.30
2019-01-20T11:41:24.792Z,21.20
2019-01-20T11:42:24.783Z,20.40
2019-01-20T11:43:24.768Z,22.60
2019-01-20T11:44:24.764Z,19.50
2019-01-20T11:45:24.751Z,19.80
2019-01-20T11:46:24.732Z,22.10
2019-01-20T11:47:24.725Z,21.20
2019-01-20T11:48:24.711Z,20.30
2019-01-20T11:49:24.699Z,20.80
2019-01-20T11:50:24.811Z,19.00
2019-01-20T11:51:24.668Z,21.20
2019-01-20T11:52:24.661Z,21.00
2019-01-20T11:53:24.648Z,20.80
2019-01-20T11:54:24.634Z,18.90
2019-01-20T11:55:24.626Z,18.40
2019-01-20T11:56:24.611Z,18.50
2019-01-20T11:57:24.597Z,20.00
2019-01-20T11:58:24.582Z,21.50
2019-01-20T11:59:24.576Z,21.80
2019-01-20T12:00:24.571Z,18.60
2019-01-20T12:01:24.553Z,18.80
2019-01-20T12:02:24.542Z,18.60
2019-01-20T12:03:24.536Z,20.90
2019-01-20T12:04:24.513Z,19.10
2019-01-20T12:05:24.509Z,23.50
2019-01-20T12:06:24.492Z,19.40
2019-01-20T12:07:24.480Z,20.40
2019-01-20T12:08:30.619Z,21.30
2019-01-20T12:09:24.492Z,20.30
2019-01-20T12:10:24.449Z,23.00
2019-01-20T12:11:24.466Z,22.90
2019-01-20T12:12:24.428Z,18.50
2019-01-20T12:13:24.412Z,22.60
2019-01-20T12:14:24.483Z,19.50
2019-01-20T12:15:24.384Z,22.00
2019-01-20T12:16:24.378Z,20.20
2019-01-20T12:17:24.366Z,20.10
2019-01-20T12:18:24.349Z,22.80
2019-01-20T12:19:24.765Z,18.90
2019-01-20T12:20:24.326Z,21.10
2019-01-20T12:21:24.317Z,22.00
2019-01-20T12:22:24.298Z,21.30
2019-01-20T12:23:24.293Z,21.60
2019-01-20T12:24:24.281Z,21.50
2019-01-20T12:25:24.281Z,27.00
2019-01-20T12:26:24.251Z,20.20
2019-01-20T12:27:24.243Z,20.60
2019-01-20T12:28:24.228Z,21.70
2019-01-20T12:29:25.646Z,20.00
2019-01-20T12:30:24.232Z,22.10
2019-01-20T12:31:24.198Z,21.70
2019-01-20T12:32:24.183Z,21.30
2019-01-20T12:33:24.171Z,21.40
2019-01-20T12:34:24.157Z,20.50
2019-01-20T12:35:24.149Z,22.30
2019-01-20T12:36:24.138Z,22.40
2019-01-20T12:37:24.130Z,20.70
2019-01-20T12:38:24.113Z,21.30
2019-01-20T12:39:24.097Z,20.90
2019-01-20T12:40:24.088Z,22.00
2019-01-20T12:41:24.075Z,19.80
2019-01-20T12:42:24.065Z,22.00
2019-01-20T12:43:24.054Z,20.90
2019-01-20T12:44:31.235Z,20.30
2019-01-20T12:45:24.039Z,21.10
2019-01-20T12:46:24.019Z,20.00
2019-01-20T12:47:25.396Z,21.60
2019-01-20T12:48:23.996Z,21.40
2019-01-20T12:49:23.980Z,20.50
2019-01-20T12:50:23.973Z,22.60
2019-01-20T12:51:28.518Z,23.40
2019-01-20T12:52:23.945Z,23.70